Berens River, Canada
Current Conditions -  °F | °C
As of 11:36 AM on Thursday 23 Oct 2014 (Local Time) from CYNE Reporting Station
Light Rain Light Rain  
Wind Chill: 45°   Ceiling: 500
Heat Index: 45°   Visibility: 2.5mi
Dew Point: 43°   Wind: 3mph
Humidity: 93%   Direction: 10°N
Pressure: 29.66"   Gusts: NA
Location:  52.37°N, 97.03°W
Report Text: CYNE 231636Z AUTO 01003KT 330V070 2 1/2SM -RA OVC005 07/06 A2966 RMK SLP053
Loading
Personal Weather Stations






























Interactive Weather Map
Tropical Storm Tracking
New forecast layout! Learn more

10-Day Weather Forecast

Advertisements
Track Severe Weather on mobile